METAR Data
IDs: Format: Raw Decoded Include TAF

Data at: 0239 UTC 25 Jan 2020

PAOH 250156Z AUTO 08004KT 10SM SCT110 M02/M02 A2940 RMK AO2 SLP957 T10171022 FZRANO
PAOH 250134Z AUTO 00000KT 9SM FEW110 M01/M02 A2940 RMK AO2 FZRANO
PAOH 250127Z AUTO 08003KT 1 1/2SM BR FEW002 SCT110 M01/M02 A2940 RMK AO2 FZRANO
PAOH 250116Z AUTO 00000KT 3/4SM BR FEW002 SCT110 M02/M02 A2940 RMK AO2 FZRANO
PAOH 250113Z AUTO 08003KT 1 1/2SM BR FEW110 M02/M02 A2939 RMK AO2 FZRANO
PAOH 250108Z AUTO 00000KT 3SM BR CLR M01/M02 A2939 RMK AO2 FZRANO
PAOH 250103Z AUTO 00000KT 1 1/2SM BR CLR M01/M02 A2939 RMK AO2 FZRANO
PAOH 250056Z AUTO 00000KT 3SM BR CLR M01/M02 A2939 RMK AO2 SLP953 T10111017 FZRANO
PAOH 242356Z AUTO 00000KT 10SM SCT046 01/00 A2938 RMK AO2 RAB19E37SNE19 SLP948 P0000 60002 T00060000 10022 20000 51024 FZRANO
PAOH 242329Z AUTO 33003KT 10SM -RA FEW018 BKN040 OVC048 01/01 A2937 RMK AO2 RAB19SNE19 P0000 FZRANO
PAOH 242314Z AUTO 00000KT 3SM -SN BR SCT018 BKN025 OVC042 01/00 A2936 RMK AO2 P0000 FZRANO
PAOH 242259Z AUTO 00000KT 1 1/2SM -SN BR FEW015 BKN028 OVC036 00/M01 A2936 RMK AO2 VIS 1/2V4 P0000 FZRANO
PAOH 242256Z AUTO 35003KT 1 3/4SM -SN BR FEW013 BKN030 OVC036 00/M01 A2936 RMK AO2 VIS 1V3 RAB22E45SNB45 SLP941 P0000 T00001006 FZRANO
PAOH 242232Z AUTO 00000KT 8SM -RA FEW001 BKN030 OVC050 01/00 A2934 RMK AO2 RAB22 P0000 FZRANO
PAOH 242156Z AUTO 00000KT 9SM FEW035 BKN050 OVC100 01/00 A2933 RMK AO2 SLP933 T00060000 FZRANO
PAOH 242056Z AUTO 00000KT 10SM FEW007 BKN090 02/02 A2931 RMK AO2 UPE14RAB14E18 SLP924 P0000 60002 T00220017 53015 FZRANO
PAOH 242021Z AUTO 34003KT 6SM BR FEW007 BKN065 OVC080 01/00 A2929 RMK AO2 UPE14RAB14E18 P0000 FZRANO
PAOH 241956Z AUTO 28003KT 4SM UP BR FEW035 OVC065 00/00 A2928 RMK AO2 UPB39SNE39B42E56 SLP916 P0001 T00000000 FZRANO
PAOH 241936Z AUTO 00000KT 3SM -SN BR SCT004 BKN030 OVC055 00/00 A2928 RMK AO2 P0001 FZRANO
PAOH 241930Z AUTO 31003KT 2SM -SN BR SCT004 BKN017 OVC060 00/00 A2928 RMK AO2 P0001 FZRANO
PAOH 241919Z AUTO 00000KT 1 1/4SM -SN BR BKN004 BKN008 OVC017 00/00 A2928 RMK AO2 P0001 FZRANO
PAOH 241911Z AUTO 28003KT 3/4SM -SN BR FEW004 BKN016 OVC023 00/00 A2928 RMK AO2 P0001 FZRANO
PAOH 241856Z AUTO 28003KT 1 1/2SM -SN BR SCT008 BKN017 OVC023 00/00 A2927 RMK AO2 SLP912 P0001 T00000000 FZRANO
PAOH 241832Z AUTO 00000KT 3/4SM -SN BR SCT005 OVC015 00/00 A2927 RMK AO2 P0001 FZRANO
PAOH 241827Z AUTO 27003KT 1SM -SN BR BKN005 OVC015 00/00 A2927 RMK AO2 CIG 003V008 P0000 FZRANO
PAOH 241756Z AUTO 25005KT 1 1/2SM -SN BR BKN005 OVC011 00/00 A2926 RMK AO2 CIG 003V007 SLP909 P0001 60019 T00000000 10000 20000 55003 FZRANO
PAOH 241744Z AUTO 26006KT 1 1/4SM -SN BR SCT005 BKN011 OVC015 00/00 A2926 RMK AO2 P0001 FZRANO
PAOH 241727Z AUTO 26006KT 1 1/4SM -SN BR FEW003 SCT011 OVC015 00/00 A2926 RMK AO2 P0000 FZRANO
PAOH 241714Z AUTO 26005KT 2 1/2SM -SN BR SCT003 BKN013 OVC017 00/00 A2926 RMK AO2 P0000 FZRANO
PAOH 241656Z AUTO 28003KT 2SM -SN BR BKN005 BKN011 OVC015 00/00 A2925 RMK AO2 CIG 004V007 SLP906 P0002 T00000000 FZRANO
PAOH 241640Z AUTO 26006KT 2 1/2SM -SN BR BKN005 BKN011 OVC017 00/00 A2926 RMK AO2 P0001 FZRANO
PAOH 241614Z AUTO 26005KT 2SM -SN BR FEW005 OVC012 00/00 A2925 RMK AO2 P0001 FZRANO
PAOH 241608Z AUTO 26003KT 1 3/4SM -SN BR OVC010 00/00 A2926 RMK AO2 P0001 FZRANO
PAOH 241556Z AUTO 26004KT 2SM -SN BR OVC008 00/00 A2926 RMK AO2 CIG 007V011 SLP909 P0003 T00000000 FZRANO
PAOH 241521Z AUTO 27005KT 2 1/2SM -SN BR OVC008 00/00 A2927 RMK AO2 VIS 1 3/4V4 CIG 006V012 P0001 FZRANO
PAOH 241453Z AUTO 00000KT 2SM -SN BR FEW003 BKN011 OVC015 00/00 A2927 RMK AO2 CIG 006V012 P0003 FZRANO
PAOH 241451Z AUTO 00000KT 1 3/4SM -SN BR SCT003 BKN009 OVC015 00/00 A2927 RMK AO2 CIG 006V012 P0003 FZRANO
PAOH 241433Z AUTO 28003KT 1 3/4SM -SN BR BKN003 OVC013 00/00 A2928 RMK AO2 P0002 FZRANO
PAOH 241421Z AUTO 00000KT 2SM -SN BR BKN003 OVC009 00/00 A2928 RMK AO2 P0001 FZRANO
PAOH 241403Z AUTO 27003KT 2SM -SN BR SCT009 OVC014 00/00 A2929 RMK AO2 P0000 FZRANO
PAOH 241346Z AUTO 26007KT 3SM -SN BR SCT007 OVC017 00/00 A2930 RMK AO2 P0004 FZRANO
PAOH 241326Z AUTO 26005KT 2SM -SN BR BKN007 OVC012 00/00 A2930 RMK AO2 CIG 004V009 P0003 FZRANO
PAOH 241316Z AUTO 27003KT 1 1/2SM -SN BR OVC005 00/00 A2931 RMK AO2 CIG 003V009 P0003 FZRANO
PAOH 241309Z AUTO 00000KT 1SM -SN BR OVC005 00/00 A2931 RMK AO2 CIG 003V008 P0001 FZRANO
PAOH 241256Z AUTO 00000KT 1SM -SN BR OVC003 00/00 A2931 RMK AO2 UPB1157E04SNE1157B04 SLP926 P0006 T00000000 FZRANO
PAOH 241254Z AUTO 00000KT 1SM -SN BR OVC003 00/00 A2931 RMK AO2 UPB1157E04SNE1157B04 P0006 FZRANO
PAOH 241223Z AUTO 00000KT 1 1/2SM -SN BR OVC005 00/00 A2932 RMK AO2 UPB1157E04SNE1157B04 P0002 FZRANO
PAOH 241215Z AUTO 00000KT 2SM -SN BR OVC005 00/00 A2932 RMK AO2 VIS 1 3/4V2 1/2 UPB1157E04SNE1157B04 P0002 FZRANO
PAOH 241156Z AUTO 00000KT 5SM -SN BR OVC005 00/00 A2933 RMK AO2 RAE19SNB19 SLP931 P0003 60009 70037 T00000000 10006 20000 58013 FZRANO
PAOH 241114Z AUTO 00000KT 8SM -RA OVC005 01/00 A2934 RMK AO2 P0001 FZRANO
PAOH 241056Z AUTO 00000KT 7SM -RA OVC003 01/00 A2934 RMK AO2 SLP936 P0003 T00060000 FZRANO
PAOH 241033Z AUTO 00000KT 4SM -RA BR BKN003 OVC027 01/00 A2934 RMK AO2 P0002 FZRANO
PAOH 241014Z AUTO 00000KT 4SM -RA BR SCT008 BKN012 OVC027 01/00 A2935 RMK AO2 P0001 FZRANO
PAOH 240956Z AUTO 00000KT 4SM -RA BR BKN006 BKN010 OVC015 01/00 A2935 RMK AO2 RAE08B41UPB08E41 CIG 005V008 SLP939 P0001 T00060000 FZRANO
PAOH 240920Z AUTO 00000KT 8SM UP BKN008 BKN013 OVC027 00/00 A2936 RMK AO2 RAE08UPB08 P0000 FZRANO
PAOH 240905Z AUTO 00000KT 10SM -RA FEW008 BKN019 OVC034 00/00 A2936 RMK AO2 P0000 FZRANO
PAOH 240856Z AUTO 00000KT 9SM -RA SCT017 SCT029 OVC034 01/00 A2936 RMK AO2 SLP944 P0001 60002 T00060000 58007 FZRANO
PAOH 240825Z AUTO 00000KT 10SM -RA BKN017 BKN036 OVC060 01/00 A2937 RMK AO2 P0000 FZRANO
PAOH 240756Z AUTO 00000KT 10SM -RA FEW011 BKN039 OVC046 01/00 A2937 RMK AO2 SLP947 P0000 T00060000 400440006 FZRANO
PAOH 240656Z AUTO 00000KT 10SM -RA OVC060 01/00 A2938 RMK AO2 SLP948 P0001 T00060000 FZRANO
PAOH 240556Z AUTO 00000KT 10SM -RA SCT043 OVC065 01/01 A2939 RMK AO2 UPE08RAB08 SLP951 P0000 60001 T00060006 10044 20006 51013 FZRANO
PAOH 240456Z AUTO 00000KT 10SM UP FEW037 BKN055 OVC070 01/01 A2938 RMK AO2 RAB34E48UPB48 SLP949 P0000 T00110006 FZRANO
PAOH 240356Z AUTO 09003KT 10SM FEW031 SCT070 SCT085 02/01 A2937 RMK AO2 SLP946 T00170011 FZRANO
PAOH 240256Z AUTO 00000KT 10SM SCT035 BKN050 BKN100 02/02 A2935 RMK AO2 SLP938 60001 T00220017 53025 FZRANO
PAOH 240156Z AUTO 05006KT 10SM OVC041 04/02 A2931 RMK AO2 RAE53 SLP925 P0000 T00440022
PAOH 240056Z AUTO 08010KT 10SM -RA FEW030 BKN043 OVC050 04/03 A2929 RMK AO2 SLP919 P0001 T00440028
PAOH 232356Z AUTO 08009KT 10SM -RA FEW026 OVC032 04/03 A2927 RMK AO2 SLP913 P0004 60006 T00390028 10039 20017 55003
PAOH 232341Z AUTO 08010KT 10SM RA SCT026 OVC032 03/03 A2927 RMK AO2 P0002
PAOH 232246Z AUTO 08010KT 10SM -RA SCT013 OVC024 03/02 A2927 RMK AO2 UPE14RAB14 P0000
PAOH 232222Z AUTO 10007KT 10SM -RA OVC013 03/02 A2927 RMK AO2 UPE14RAB14 P0000
PAOH 232156Z AUTO 10008G15KT 10SM UP FEW010 BKN017 OVC023 03/02 A2928 RMK AO2 UPB22 SLP914 P0000 T00280022
PAOH 232106Z AUTO 08009KT 8SM FEW010 BKN015 OVC022 03/02 A2928 RMK AO2
PAOH 232056Z AUTO 08010KT 6SM BR FEW010 BKN014 OVC020 02/02 A2928 RMK AO2 SLP916 60001 T00220017 50003 FZRANO
PAOH 232017Z AUTO 08009KT 6SM BR FEW008 OVC020 02/02 A2928 RMK AO2 FZRANO
PAOH 231956Z AUTO 09011KT 7SM OVC020 02/02 A2928 RMK AO2 RAE25UPB25E47 SLP917 P0001 T00220017 FZRANO
PAOH 231856Z AUTO 08010KT 4SM -RA BR FEW007 OVC022 02/02 A2927 RMK AO2 SLP913 P0000 T00170017 FZRANO
PAOH 231820Z AUTO 09008KT 7SM -RA SCT007 SCT011 OVC024 02/01 A2927 RMK AO2 P0000 FZRANO
PAOH 231756Z AUTO 09009KT 9SM -RA BKN007 OVC028 02/01 A2926 RMK AO2 CIG 006V011 SLP909 P0000 60021 T00170011 10017 20006 53010 FZRANO
PAOH 231656Z AUTO 09004KT 6SM -RA BR BKN009 OVC024 01/01 A2925 RMK AO2 RAE24B46UPB24E46 CIG 006V013 SLP903 P0004 T00110006 FZRANO
PAOH 231654Z AUTO 10004KT 7SM -RA BKN009 BKN021 OVC026 01/01 A2924 RMK AO2 RAE24B46UPB24E46 CIG 006V013 P0004 FZRANO
PAOH 231645Z AUTO 09006KT 9SM UP SCT009 BKN021 OVC028 01/01 A2924 RMK AO2 RAE24UPB24 P0004 FZRANO
PAOH 231625Z AUTO 09006KT 8SM UP FEW010 BKN019 OVC027 01/01 A2924 RMK AO2 RAE24UPB24 P0002 FZRANO
PAOH 231556Z AUTO 08005KT 9SM -RA BKN010 BKN016 OVC027 01/01 A2923 RMK AO2 UPE30B48E56RAB08 SLP899 P0004 T00110006 FZRANO
PAOH 231456Z AUTO 07003KT 10SM UP BKN010 OVC016 01/01 A2923 RMK AO2 RAB41E52SNB27E37 SLP899 P0008 60013 T00110006 56005 FZRANO